Time;durP1;ratioP1;P1;durP2;ratioP2;P2;SDS_P1;SDS_P2;PMS_P1;PMS_P2;Temp;Humidity;BMP_temperature;BMP_pressure;BME280_temperature;BME280_humidity;BME280_pressure;Samples;Min_cycle;Max_cycle;Signal;HPM_P1;HPM_P2
2022/04/05 00:01:33;;;;;;;1.05;0.90;;;20.70;34.90;;;;;;4991704;28;20088;-60
2022/04/05 00:03:59;;;;;;;1.17;0.80;;;20.70;34.80;;;;;;4992816;28;20033;-60
2022/04/05 00:06:25;;;;;;;1.10;0.80;;;20.70;34.90;;;;;;4992901;28;20029;-60
2022/04/05 00:08:50;;;;;;;1.55;1.30;;;20.70;34.90;;;;;;5008015;28;20359;-60
2022/04/05 00:11:16;;;;;;;1.70;0.88;;;20.70;34.90;;;;;;4994715;28;20030;-61
2022/04/05 00:13:42;;;;;;;1.27;0.95;;;20.70;35.00;;;;;;4993131;28;20041;-59
2022/04/05 00:16:07;;;;;;;1.35;1.00;;;20.70;35.00;;;;;;4993284;28;20113;-61
2022/04/05 00:18:33;;;;;;;1.15;0.90;;;20.60;34.90;;;;;;4991693;28;20534;-59
2022/04/05 00:21:01;;;;;;;1.60;1.00;;;20.60;35.00;;;;;;4993829;28;20037;-61
2022/04/05 00:23:27;;;;;;;1.23;0.90;;;20.60;35.00;;;;;;4992318;28;20038;-59
2022/04/05 00:25:53;;;;;;;0.90;0.77;;;20.60;35.00;;;;;;4993919;28;20030;-61
2022/04/05 00:28:18;;;;;;;1.27;1.00;;;20.60;35.10;;;;;;4994336;28;20430;-61
2022/04/05 00:30:44;;;;;;;1.33;0.90;;;20.60;35.10;;;;;;4993853;28;20049;-60
2022/04/05 00:33:09;;;;;;;1.20;0.90;;;20.60;35.20;;;;;;4992443;28;20038;-60
2022/04/05 00:35:35;;;;;;;1.20;0.80;;;20.60;35.20;;;;;;4997085;28;20137;-59
2022/04/05 00:38:00;;;;;;;1.10;0.82;;;20.60;35.20;;;;;;4994228;28;20025;-60
2022/04/05 00:40:26;;;;;;;1.33;0.90;;;20.50;35.20;;;;;;4995420;28;20026;-62
2022/04/05 00:42:52;;;;;;;1.13;0.80;;;20.60;35.20;;;;;;4995812;28;20033;-63
2022/04/05 00:45:20;;;;;;;0.70;0.70;;;20.50;35.20;;;;;;4992854;28;20041;-60
2022/04/05 00:47:48;;;;;;;1.42;1.00;;;20.50;35.20;;;;;;4995192;28;20030;-63
2022/04/05 00:50:18;;;;;;;0.85;0.80;;;20.50;35.30;;;;;;4994760;28;20053;-60
2022/04/05 00:52:44;;;;;;;1.10;0.88;;;20.50;35.30;;;;;;4995445;28;20083;-61
2022/04/05 00:55:11;;;;;;;1.23;0.80;;;20.50;35.30;;;;;;4994559;28;20447;-63
2022/04/05 00:57:38;;;;;;;1.17;0.85;;;20.50;35.30;;;;;;4992517;28;20033;-63
2022/04/05 01:00:07;;;;;;;1.17;0.80;;;20.50;35.30;;;;;;4995534;28;20095;-63
2022/04/05 01:02:37;;;;;;;;;;;20.50;35.30;;;;;;4991913;28;20054;-59
2022/04/05 01:05:03;;;;;;;;;;;20.50;35.30;;;;;;4994801;28;19928;-61
2022/04/05 01:07:30;;;;;;;0.95;0.80;;;20.50;35.30;;;;;;4995165;28;19909;-61
2022/04/05 01:09:57;;;;;;;1.08;0.90;;;20.50;35.30;;;;;;4995118;28;20018;-60
2022/04/05 01:12:23;;;;;;;0.80;0.73;;;20.50;35.30;;;;;;4994482;28;20422;-61
2022/04/05 01:14:49;;;;;;;1.20;0.80;;;20.50;35.30;;;;;;4993465;28;20036;-61
2022/04/05 01:17:16;;;;;;;1.95;0.82;;;20.40;35.30;;;;;;4993181;28;20447;-61
2022/04/05 01:19:42;;;;;;;1.42;0.82;;;20.40;35.30;;;;;;4994298;28;20030;-61
2022/04/05 01:22:08;;;;;;;0.80;0.80;;;20.40;35.30;;;;;;4995390;28;20335;-60
2022/04/05 01:24:34;;;;;;;0.73;0.70;;;20.40;35.40;;;;;;4992005;28;20423;-63
2022/04/05 01:27:04;;;;;;;1.02;0.80;;;20.40;35.40;;;;;;4993976;28;20033;-60
2022/04/05 01:29:30;;;;;;;0.60;0.60;;;20.40;35.40;;;;;;4995831;28;20026;-61
2022/04/05 01:32:07;;;;;;;1.08;0.70;;;20.40;35.30;;;;;;4991811;28;20546;-60
2022/04/05 01:34:34;;;;;;;0.93;0.73;;;20.40;35.30;;;;;;4993692;28;20033;-60
2022/04/05 01:37:03;;;;;;;0.82;0.70;;;20.40;35.30;;;;;;4992379;28;20047;-61
2022/04/05 01:39:31;;;;;;;1.20;0.80;;;20.40;35.40;;;;;;4993345;28;20037;-61
2022/04/05 01:41:59;;;;;;;0.68;0.65;;;20.40;35.40;;;;;;4995010;28;20116;-59
2022/04/05 01:44:26;;;;;;;0.80;0.77;;;20.40;35.40;;;;;;4993862;28;20494;-63
2022/04/05 01:46:52;;;;;;;0.60;0.60;;;20.40;35.40;;;;;;4987890;28;20034;-63
2022/04/05 01:49:18;;;;;;;1.15;0.80;;;20.40;35.40;;;;;;4993344;28;20045;-60
2022/04/05 01:51:45;;;;;;;1.35;0.80;;;20.40;35.50;;;;;;4994700;28;20107;-61
2022/04/05 01:54:14;;;;;;;0.82;0.70;;;20.30;35.50;;;;;;4993708;28;20025;-63
2022/04/05 01:56:48;;;;;;;1.10;0.70;;;20.30;35.50;;;;;;4994736;28;20060;-61
2022/04/05 01:59:16;;;;;;;0.70;0.70;;;20.30;35.50;;;;;;4994996;28;20046;-61
2022/04/05 02:01:42;;;;;;;0.60;0.60;;;20.30;35.60;;;;;;4988821;28;20125;-60
2022/04/05 02:04:09;;;;;;;0.77;0.73;;;20.30;35.60;;;;;;4992138;28;20040;-61
2022/04/05 02:06:36;;;;;;;1.13;0.63;;;20.30;35.50;;;;;;4994283;28;20088;-59
2022/04/05 02:09:02;;;;;;;0.82;0.70;;;20.30;35.70;;;;;;4994241;28;20028;-61
2022/04/05 02:11:27;;;;;;;0.90;0.70;;;20.30;35.60;;;;;;4992527;28;20030;-64
2022/04/05 02:13:53;;;;;;;0.60;0.60;;;20.30;36.10;;;;;;4993309;28;20423;-60
2022/04/05 02:16:18;;;;;;;0.82;0.63;;;20.30;36.10;;;;;;4988271;28;20033;-59
2022/04/05 02:18:44;;;;;;;0.68;0.60;;;20.30;35.60;;;;;;4991828;28;20119;-60
2022/04/05 02:21:11;;;;;;;1.00;0.80;;;20.30;35.60;;;;;;4992864;28;20092;-60
2022/04/05 02:23:36;;;;;;;0.60;0.60;;;20.20;35.50;;;;;;4993682;28;20040;-61
2022/04/05 02:26:03;;;;;;;0.73;0.70;;;20.30;35.60;;;;;;4991168;28;20034;-63
2022/04/05 02:28:28;;;;;;;0.85;0.70;;;20.30;35.70;;;;;;4992960;28;20053;-59
2022/04/05 02:30:54;;;;;;;1.05;0.75;;;20.30;35.70;;;;;;4989970;28;20124;-60
2022/04/05 02:33:20;;;;;;;0.60;0.60;;;20.20;35.70;;;;;;4989441;28;20105;-61
2022/04/05 02:35:48;;;;;;;0.60;0.60;;;20.20;35.70;;;;;;4993301;28;20037;-61
2022/04/05 02:38:14;;;;;;;0.60;0.60;;;20.20;35.70;;;;;;4993470;28;20477;-63
2022/04/05 02:40:40;;;;;;;0.68;0.68;;;20.20;35.80;;;;;;4994270;28;20117;-58
2022/04/05 02:43:06;;;;;;;0.73;0.60;;;20.20;35.80;;;;;;4989999;28;20468;-59
2022/04/05 02:45:32;;;;;;;0.50;0.50;;;20.20;35.70;;;;;;4990205;28;20026;-60
2022/04/05 02:47:57;;;;;;;0.65;0.60;;;20.20;35.80;;;;;;4989082;28;20044;-61
2022/04/05 02:50:23;;;;;;;0.60;0.55;;;20.20;35.80;;;;;;4992991;28;20056;-60
2022/04/05 02:52:49;;;;;;;0.70;0.60;;;20.20;35.80;;;;;;4993461;28;20084;-60
2022/04/05 02:55:15;;;;;;;0.68;0.65;;;20.20;35.80;;;;;;4992184;28;20030;-57
2022/04/05 02:57:43;;;;;;;0.82;0.70;;;20.20;35.70;;;;;;4992602;28;20057;-60
2022/04/05 03:00:13;;;;;;;0.82;0.60;;;20.20;35.80;;;;;;4991151;28;20397;-61
2022/04/05 03:02:39;;;;;;;0.80;0.60;;;20.10;35.80;;;;;;4989867;28;20112;-61
2022/04/05 03:05:06;;;;;;;0.70;0.57;;;20.20;35.90;;;;;;4991932;28;20025;-63
2022/04/05 03:07:36;;;;;;;0.95;0.73;;;20.10;35.80;;;;;;4993032;28;20033;-60
2022/04/05 03:10:09;;;;;;;;;;;20.10;35.80;;;;;;4994709;28;20524;-60
2022/04/05 03:12:35;;;;;;;0.60;0.60;;;20.10;35.90;;;;;;4992063;28;19937;-59
2022/04/05 03:15:02;;;;;;;0.60;0.60;;;20.10;35.80;;;;;;4993728;28;20561;-64
2022/04/05 03:17:28;;;;;;;0.80;0.70;;;20.10;35.80;;;;;;4992234;28;20786;-63
2022/04/05 03:19:54;;;;;;;0.52;0.50;;;20.10;35.80;;;;;;4993422;28;20034;-59
2022/04/05 03:22:20;;;;;;;0.50;0.50;;;20.10;35.80;;;;;;4993811;28;20029;-63
2022/04/05 03:24:46;;;;;;;0.60;0.60;;;20.10;35.80;;;;;;4993500;28;20088;-63
2022/04/05 03:27:11;;;;;;;0.65;0.60;;;20.10;35.80;;;;;;4991438;28;20109;-63
2022/04/05 03:29:37;;;;;;;0.75;0.70;;;20.10;35.80;;;;;;4991917;28;20026;-60
2022/04/05 03:32:03;;;;;;;0.63;0.60;;;20.10;35.80;;;;;;4990076;28;20340;-59
2022/04/05 03:34:29;;;;;;;0.65;0.60;;;20.10;35.90;;;;;;4992248;28;20033;-63
2022/04/05 03:36:55;;;;;;;0.70;0.68;;;20.10;36.00;;;;;;4991380;28;20044;-61
2022/04/05 03:39:21;;;;;;;0.60;0.60;;;20.10;35.90;;;;;;4992042;28;20450;-60
2022/04/05 03:41:47;;;;;;;0.50;0.50;;;20.00;35.90;;;;;;4992642;28;20140;-60
2022/04/05 03:44:13;;;;;;;0.80;0.60;;;20.00;35.90;;;;;;4993149;28;20101;-63
2022/04/05 03:46:39;;;;;;;1.02;0.43;;;20.10;35.90;;;;;;4986373;28;20033;-63
2022/04/05 03:49:05;;;;;;;0.77;0.60;;;20.00;35.90;;;;;;4989774;28;20034;-61
2022/04/05 03:51:30;;;;;;;0.82;0.70;;;20.00;35.90;;;;;;4993205;28;20026;-61
2022/04/05 03:53:56;;;;;;;0.70;0.60;;;20.00;35.90;;;;;;4991789;28;20037;-60
2022/04/05 03:56:23;;;;;;;0.55;0.55;;;20.00;35.90;;;;;;4990068;28;20034;-58
2022/04/05 03:58:49;;;;;;;0.63;0.50;;;20.00;36.00;;;;;;4992253;28;20259;-59
2022/04/05 04:01:15;;;;;;;0.60;0.60;;;20.00;36.00;;;;;;4991574;28;20124;-61
2022/04/05 04:03:40;;;;;;;0.80;0.60;;;20.00;35.90;;;;;;4992934;28;20034;-60
2022/04/05 04:06:06;;;;;;;0.50;0.50;;;20.00;36.00;;;;;;5008373;28;20044;-60
2022/04/05 04:08:32;;;;;;;0.47;0.47;;;20.00;36.00;;;;;;4997464;28;20069;-61
2022/04/05 04:10:57;;;;;;;0.60;0.60;;;20.00;36.00;;;;;;4995413;28;20100;-60
2022/04/05 04:13:23;;;;;;;0.70;0.63;;;20.00;36.00;;;;;;4994687;28;20046;-61
2022/04/05 04:15:49;;;;;;;0.50;0.50;;;20.00;36.00;;;;;;4994549;28;20033;-61
2022/04/05 04:18:14;;;;;;;0.77;0.50;;;20.00;36.00;;;;;;4993044;28;20435;-62
2022/04/05 04:20:42;;;;;;;0.73;0.57;;;20.00;36.00;;;;;;4994180;28;20414;-59
2022/04/05 04:23:08;;;;;;;0.60;0.60;;;20.00;36.10;;;;;;4994741;28;20124;-60
2022/04/05 04:25:34;;;;;;;0.70;0.60;;;20.00;36.10;;;;;;4993782;28;20053;-59
2022/04/05 04:28:00;;;;;;;1.35;0.90;;;19.90;36.10;;;;;;4993457;28;20033;-61
2022/04/05 04:30:26;;;;;;;0.80;0.70;;;19.90;35.70;;;;;;4991792;28;20084;-62
2022/04/05 04:32:53;;;;;;;1.45;0.90;;;19.90;35.30;;;;;;4991969;28;20446;-63
2022/04/05 04:35:20;;;;;;;0.98;0.80;;;19.90;35.10;;;;;;4993912;28;20148;-60
2022/04/05 04:37:45;;;;;;;1.27;0.90;;;19.90;35.10;;;;;;4992612;28;20030;-59
2022/04/05 04:40:12;;;;;;;1.58;1.15;;;19.90;35.10;;;;;;4995603;28;20389;-60
2022/04/05 04:42:37;;;;;;;1.67;1.13;;;19.80;34.70;;;;;;4994963;28;20629;-60
2022/04/05 04:45:03;;;;;;;2.10;1.30;;;19.70;34.40;;;;;;4995331;28;20034;-60
2022/04/05 04:47:29;;;;;;;2.08;1.33;;;19.60;34.20;;;;;;4989740;28;20030;-60
2022/04/05 04:49:55;;;;;;;2.13;1.40;;;19.60;34.10;;;;;;4993223;28;20041;-62
2022/04/05 04:52:21;;;;;;;2.03;1.38;;;19.50;33.70;;;;;;4993006;28;20055;-59
2022/04/05 04:54:46;;;;;;;2.20;1.10;;;19.50;33.80;;;;;;4993427;28;20026;-59
2022/04/05 04:57:12;;;;;;;2.85;1.35;;;19.50;33.80;;;;;;4993994;28;20092;-59
2022/04/05 04:59:37;;;;;;;1.98;1.30;;;19.50;33.80;;;;;;4993242;28;20029;-60
2022/04/05 05:02:03;;;;;;;2.58;1.20;;;19.50;33.90;;;;;;4989038;28;20061;-60
2022/04/05 05:04:30;;;;;;;1.70;1.10;;;19.50;34.00;;;;;;4991907;28;20064;-61
2022/04/05 05:06:56;;;;;;;1.50;1.00;;;19.50;33.90;;;;;;4993080;28;20022;-60
2022/04/05 05:09:21;;;;;;;1.58;1.10;;;19.50;33.90;;;;;;4992236;28;20370;-59
2022/04/05 05:11:47;;;;;;;1.48;1.00;;;19.50;33.90;;;;;;4992781;28;20019;-59
2022/04/05 05:14:12;;;;;;;1.77;1.08;;;19.50;33.90;;;;;;4991245;28;20057;-61
2022/04/05 05:16:38;;;;;;;1.63;1.00;;;19.50;33.80;;;;;;4989016;28;20034;-61
2022/04/05 05:19:05;;;;;;;1.35;0.90;;;19.50;33.80;;;;;;4988270;28;20036;-61
2022/04/05 05:21:31;;;;;;;2.67;0.98;;;19.50;33.90;;;;;;4990280;28;20044;-61
2022/04/05 05:23:56;;;;;;;1.17;0.80;;;19.50;34.20;;;;;;4991960;28;20034;-60
2022/04/05 05:26:22;;;;;;;1.08;0.90;;;19.50;34.30;;;;;;4989477;28;20037;-61
2022/04/05 05:28:48;;;;;;;0.82;0.65;;;19.50;34.40;;;;;;4988449;28;20033;-61
2022/04/05 05:31:14;;;;;;;0.82;0.70;;;19.50;34.50;;;;;;4990439;28;20510;-62
2022/04/05 05:33:39;;;;;;;0.90;0.68;;;19.50;35.10;;;;;;4989402;28;20064;-60
2022/04/05 05:36:05;;;;;;;0.88;0.70;;;19.50;34.70;;;;;;4987769;28;20025;-61
2022/04/05 05:38:31;;;;;;;1.23;0.70;;;19.50;34.70;;;;;;4985975;28;20427;-60
2022/04/05 05:40:56;;;;;;;0.88;0.70;;;19.50;34.90;;;;;;4993686;28;20065;-59
2022/04/05 05:43:23;;;;;;;0.60;0.60;;;19.60;36.20;;;;;;4984669;28;20366;-59
2022/04/05 05:45:49;;;;;;;0.80;0.60;;;19.80;36.50;;;;;;4988680;28;20516;-60
2022/04/05 05:48:14;;;;;;;0.70;0.70;;;20.10;37.40;;;;;;4989262;28;20158;-61
2022/04/05 05:50:40;;;;;;;1.13;0.60;;;20.40;37.20;;;;;;4991181;28;20026;-60
2022/04/05 05:53:07;;;;;;;2.08;0.70;;;20.60;37.10;;;;;;4993928;28;20111;-60
2022/04/05 05:55:34;;;;;;;0.80;0.70;;;20.70;36.80;;;;;;4995660;28;20036;-60
2022/04/05 05:58:00;;;;;;;0.75;0.52;;;20.90;37.00;;;;;;4995698;28;20034;-61
2022/04/05 06:00:25;;;;;;;0.80;0.60;;;21.10;36.60;;;;;;4990009;28;20081;-60
2022/04/05 06:02:55;;;;;;;0.90;0.60;;;21.20;36.90;;;;;;4989625;28;20030;-62
2022/04/05 06:05:22;;;;;;;0.63;0.55;;;21.40;37.20;;;;;;4992992;28;20030;-59
2022/04/05 06:07:48;;;;;;;0.90;0.60;;;21.70;36.80;;;;;;4991908;28;20018;-61
2022/04/05 06:10:14;;;;;;;0.65;0.50;;;21.90;36.20;;;;;;4993881;28;20045;-60
2022/04/05 06:12:45;;;;;;;0.40;0.40;;;21.90;36.30;;;;;;4988961;28;20057;-59
2022/04/05 06:15:12;;;;;;;0.45;0.45;;;22.00;36.50;;;;;;4991975;28;20026;-63
2022/04/05 06:17:44;;;;;;;0.65;0.50;;;22.00;36.40;;;;;;4988364;28;20026;-61
2022/04/05 06:20:12;;;;;;;0.50;0.50;;;22.10;36.40;;;;;;4989076;28;20155;-62
2022/04/05 06:22:46;;;;;;;0.40;0.35;;;22.20;36.60;;;;;;4993769;28;20167;-60
2022/04/05 06:25:14;;;;;;;0.50;0.50;;;22.20;36.50;;;;;;4992746;28;20033;-59
2022/04/05 06:27:40;;;;;;;0.40;0.40;;;22.10;36.50;;;;;;4992344;28;20040;-60
2022/04/05 06:30:07;;;;;;;0.60;0.50;;;22.10;36.70;;;;;;4992361;28;20026;-59
2022/04/05 06:32:33;;;;;;;0.68;0.57;;;22.10;37.10;;;;;;4990822;28;20486;-60
2022/04/05 06:34:59;;;;;;;0.57;0.57;;;22.40;37.20;;;;;;4986574;28;20034;-59
2022/04/05 06:37:24;;;;;;;0.55;0.50;;;22.60;36.90;;;;;;4990189;28;20488;-58
2022/04/05 06:39:50;;;;;;;0.70;0.50;;;22.90;36.80;;;;;;4989901;28;20084;-62
2022/04/05 06:42:16;;;;;;;0.50;0.50;;;23.10;36.50;;;;;;4983987;28;20029;-59
2022/04/05 06:44:41;;;;;;;0.57;0.55;;;23.30;36.50;;;;;;4992853;28;20512;-61
2022/04/05 06:47:08;;;;;;;0.40;0.40;;;23.50;36.30;;;;;;4987271;28;20597;-60
2022/04/05 06:49:34;;;;;;;0.40;0.40;;;23.60;36.20;;;;;;4991152;28;20048;-62
2022/04/05 06:52:00;;;;;;;0.50;0.40;;;23.50;36.20;;;;;;4989028;28;20021;-59
2022/04/05 06:54:25;;;;;;;0.35;0.35;;;23.40;36.50;;;;;;4989046;28;20029;-59
2022/04/05 06:56:51;;;;;;;0.40;0.40;;;23.20;36.60;;;;;;4988417;28;20475;-59
2022/04/05 06:59:16;;;;;;;0.40;0.40;;;23.20;36.90;;;;;;4990799;28;20123;-60
2022/04/05 07:01:42;;;;;;;0.40;0.40;;;23.10;36.90;;;;;;4984947;28;20046;-61
2022/04/05 07:04:07;;;;;;;0.40;0.40;;;23.10;36.90;;;;;;4987233;28;24085;-61
2022/04/05 07:06:33;;;;;;;0.40;0.40;;;23.10;37.40;;;;;;4985929;28;20034;-60
2022/04/05 07:08:59;;;;;;;0.85;0.50;;;23.10;37.40;;;;;;4991336;28;20590;-60
2022/04/05 07:11:25;;;;;;;0.32;0.30;;;23.10;37.90;;;;;;4989165;28;20034;-60
2022/04/05 07:13:51;;;;;;;0.40;0.40;;;23.10;38.10;;;;;;4990956;28;20038;-63
2022/04/05 07:16:18;;;;;;;0.40;0.40;;;23.10;38.20;;;;;;4990436;28;20036;-59
2022/04/05 07:18:44;;;;;;;0.40;0.40;;;23.10;38.30;;;;;;4989526;28;20044;-60
2022/04/05 07:21:11;;;;;;;0.45;0.45;;;23.10;38.00;;;;;;4988010;28;20030;-61
2022/04/05 07:23:37;;;;;;;0.40;0.40;;;23.10;37.90;;;;;;4984621;28;20042;-59
2022/04/05 07:26:03;;;;;;;0.50;0.50;;;23.10;38.70;;;;;;4992086;28;20041;-58
2022/04/05 07:28:29;;;;;;;0.85;0.50;;;23.10;38.10;;;;;;4987921;28;20026;-60
2022/04/05 07:30:55;;;;;;;0.40;0.40;;;23.10;38.10;;;;;;4988661;28;20139;-61
2022/04/05 07:33:21;;;;;;;0.40;0.40;;;23.10;38.90;;;;;;4986685;28;20556;-62
2022/04/05 07:35:46;;;;;;;0.32;0.32;;;23.20;38.90;;;;;;4988384;28;20140;-60
2022/04/05 07:38:12;;;;;;;0.40;0.40;;;23.20;38.60;;;;;;4991899;28;20068;-58
2022/04/05 07:40:52;;;;;;;0.40;0.40;;;23.20;38.50;;;;;;4985436;28;20499;-60
2022/04/05 07:43:19;;;;;;;;;;;23.20;38.50;;;;;;4988917;28;20526;-62
2022/04/05 07:45:48;;;;;;;0.30;0.30;;;23.20;38.70;;;;;;4992923;28;20380;-62
2022/04/05 07:48:14;;;;;;;0.60;0.50;;;23.20;38.50;;;;;;4992240;28;20034;-62
2022/04/05 07:50:40;;;;;;;0.40;0.40;;;23.20;38.60;;;;;;4993638;28;20507;-60
2022/04/05 07:53:05;;;;;;;0.57;0.40;;;23.20;38.80;;;;;;4988784;28;20128;-62
2022/04/05 07:55:32;;;;;;;0.30;0.30;;;23.20;38.50;;;;;;4991965;28;20053;-58
2022/04/05 07:57:58;;;;;;;0.35;0.35;;;23.20;38.60;;;;;;4988977;28;20081;-63
2022/04/05 08:00:24;;;;;;;0.32;0.32;;;23.20;38.40;;;;;;4989924;28;20859;-61
2022/04/05 08:02:52;;;;;;;0.50;0.47;;;23.20;38.80;;;;;;4989696;28;20029;-61
2022/04/05 08:05:18;;;;;;;0.50;0.50;;;23.20;39.20;;;;;;4995672;28;20034;-59
2022/04/05 08:07:44;;;;;;;0.40;0.40;;;23.30;39.30;;;;;;4995819;28;20045;-60
2022/04/05 08:10:10;;;;;;;0.40;0.40;;;23.30;39.30;;;;;;4995581;28;20534;-63
2022/04/05 08:12:48;;;;;;;0.30;0.30;;;23.30;39.20;;;;;;4990886;28;20123;-59
2022/04/05 08:15:23;;;;;;;0.40;0.40;;;23.30;39.70;;;;;;4990466;28;20861;-59
2022/04/05 08:17:50;;;;;;;0.40;0.40;;;23.30;39.20;;;;;;4988789;28;20309;-62
2022/04/05 08:20:16;;;;;;;0.40;0.40;;;23.30;39.10;;;;;;4992785;28;20507;-63
2022/04/05 08:22:42;;;;;;;0.32;0.32;;;23.30;39.50;;;;;;4978012;28;20026;-60
2022/04/05 08:25:09;;;;;;;0.65;0.50;;;23.40;39.70;;;;;;4990482;28;20442;-61
2022/04/05 08:27:36;;;;;;;0.43;0.40;;;23.40;39.70;;;;;;4995458;28;20030;-60
2022/04/05 08:30:04;;;;;;;0.40;0.40;;;23.40;39.50;;;;;;4990837;28;20033;-60
2022/04/05 08:32:30;;;;;;;0.60;0.43;;;23.40;39.60;;;;;;4991013;28;20215;-59
2022/04/05 08:34:55;;;;;;;0.40;0.40;;;23.40;39.90;;;;;;4993715;28;20046;-61
2022/04/05 08:37:22;;;;;;;0.40;0.40;;;23.40;39.80;;;;;;4994663;28;20395;-60
2022/04/05 08:39:48;;;;;;;1.08;0.40;;;23.40;40.10;;;;;;4988355;28;20034;-62
2022/04/05 08:42:14;;;;;;;0.30;0.30;;;23.40;39.90;;;;;;4988318;28;20116;-60
2022/04/05 08:44:43;;;;;;;0.40;0.40;;;23.40;39.80;;;;;;4990337;28;20140;-59
2022/04/05 08:47:12;;;;;;;0.32;0.32;;;23.50;40.00;;;;;;4979502;28;20089;-59
2022/04/05 08:49:38;;;;;;;0.43;0.40;;;23.50;40.40;;;;;;4989144;28;20108;-59
2022/04/05 08:52:05;;;;;;;0.55;0.47;;;23.50;40.00;;;;;;4992251;28;20710;-60
2022/04/05 08:54:31;;;;;;;0.43;0.43;;;23.50;39.90;;;;;;4986948;28;20473;-60
2022/04/05 08:56:56;;;;;;;0.55;0.30;;;23.50;39.90;;;;;;4987824;28;20014;-61
2022/04/05 08:59:22;;;;;;;0.60;0.50;;;23.50;39.90;;;;;;4991154;28;20041;-59
2022/04/05 09:01:49;;;;;;;0.40;0.40;;;23.50;39.90;;;;;;4988973;28;20124;-62
2022/04/05 09:04:14;;;;;;;0.45;0.40;;;23.50;40.30;;;;;;4990424;28;20140;-60
2022/04/05 09:06:40;;;;;;;0.30;0.30;;;23.50;40.00;;;;;;4990192;28;20542;-61
2022/04/05 09:09:19;;;;;;;0.40;0.40;;;23.50;39.90;;;;;;4992463;28;20457;-59
2022/04/05 09:11:49;;;;;;;0.65;0.57;;;23.50;40.00;;;;;;4996066;28;20050;-59
2022/04/05 09:14:25;;;;;;;0.40;0.40;;;23.50;40.20;;;;;;4992555;28;20121;-60
2022/04/05 09:17:20;;;;;;;0.40;0.40;;;23.60;40.40;;;;;;4988829;28;20117;-60
2022/04/05 09:19:45;;;;;;;0.55;0.43;;;23.60;40.30;;;;;;4972219;28;20317;-60
2022/04/05 09:22:11;;;;;;;0.63;0.40;;;23.60;40.10;;;;;;4988215;28;20040;-59
2022/04/05 09:24:45;;;;;;;0.40;0.40;;;23.60;40.30;;;;;;4992175;28;20026;-63
2022/04/05 09:27:11;;;;;;;0.30;0.30;;;23.60;40.50;;;;;;4987837;28;20049;-61
2022/04/05 09:29:41;;;;;;;0.40;0.40;;;23.60;40.70;;;;;;4988085;28;20435;-60
2022/04/05 09:32:07;;;;;;;0.40;0.40;;;23.60;40.60;;;;;;4988161;28;20030;-61
2022/04/05 09:34:46;;;;;;;0.38;0.30;;;23.60;40.30;;;;;;4983345;28;21077;-61
2022/04/05 09:37:12;;;;;;;0.40;0.40;;;23.70;40.40;;;;;;4988937;28;20030;-61
2022/04/05 09:39:38;;;;;;;0.30;0.30;;;23.70;40.40;;;;;;4988793;28;20033;-60
2022/04/05 09:42:05;;;;;;;0.40;0.35;;;23.60;40.20;;;;;;4989292;28;20383;-60
2022/04/05 09:44:39;;;;;;;0.63;0.50;;;23.70;40.20;;;;;;4989776;28;21404;-58
2022/04/05 09:47:09;;;;;;;0.35;0.35;;;23.70;40.20;;;;;;4990553;28;20033;-58
2022/04/05 09:49:43;;;;;;;0.75;0.32;;;23.70;40.60;;;;;;4988004;28;20046;-62
2022/04/05 09:52:25;;;;;;;0.45;0.40;;;23.70;40.10;;;;;;4991869;28;20018;-60
2022/04/05 09:54:52;;;;;;;0.30;0.30;;;23.70;40.00;;;;;;4991579;28;20029;-61
2022/04/05 09:57:32;;;;;;;0.40;0.40;;;23.70;40.00;;;;;;4990457;28;20030;-61
2022/04/05 10:00:09;;;;;;;0.55;0.40;;;23.70;39.90;;;;;;4991403;28;20635;-63
2022/04/05 10:02:35;;;;;;;0.40;0.40;;;23.70;40.10;;;;;;4987524;28;20053;-60
2022/04/05 10:05:09;;;;;;;0.55;0.45;;;23.70;40.20;;;;;;4992339;28;20394;-61
2022/04/05 10:07:36;;;;;;;0.60;0.50;;;23.70;40.20;;;;;;4992017;28;20438;-63
2022/04/05 10:10:07;;;;;;;0.40;0.40;;;23.70;40.00;;;;;;4987365;28;20658;-61
2022/04/05 10:12:33;;;;;;;0.40;0.40;;;23.80;40.20;;;;;;4986057;28;20042;-60
2022/04/05 10:15:00;;;;;;;2.35;0.47;;;23.80;40.10;;;;;;4986812;28;20663;-59
2022/04/05 10:17:27;;;;;;;1.52;0.40;;;23.80;40.30;;;;;;4987965;28;20245;-61
2022/04/05 10:19:56;;;;;;;0.30;0.30;;;23.80;40.30;;;;;;4982404;28;20654;-61
2022/04/05 10:22:22;;;;;;;0.45;0.40;;;23.80;40.30;;;;;;4986582;28;20113;-60
2022/04/05 10:24:52;;;;;;;0.47;0.47;;;23.90;40.30;;;;;;4987722;28;20030;-61
2022/04/05 10:27:21;;;;;;;0.40;0.40;;;23.90;40.30;;;;;;4988578;28;20259;-59
2022/04/05 10:29:59;;;;;;;0.40;0.40;;;23.90;40.10;;;;;;4986560;28;20672;-59
2022/04/05 10:32:36;;;;;;;0.77;0.40;;;23.90;39.90;;;;;;4982789;28;20660;-60
2022/04/05 10:35:07;;;;;;;0.60;0.40;;;23.90;40.10;;;;;;4984489;28;20222;-62
2022/04/05 10:37:37;;;;;;;0.43;0.43;;;23.90;40.30;;;;;;4980246;28;20042;-60
2022/04/05 10:40:02;;;;;;;0.40;0.40;;;23.90;40.40;;;;;;4984199;28;20049;-62
2022/04/05 10:42:42;;;;;;;0.80;0.60;;;23.90;40.50;;;;;;4988881;28;20030;-63
2022/04/05 10:45:12;;;;;;;2.80;1.02;;;23.90;37.00;;;;;;4983859;28;20021;-61
2022/04/05 10:47:57;;;;;;;1.83;0.93;;;23.80;33.90;;;;;;4981458;28;20477;-62
2022/04/05 10:50:23;;;;;;;0.80;0.70;;;23.70;32.60;;;;;;4985124;28;20045;-60
2022/04/05 10:53:14;;;;;;;2.17;0.90;;;23.60;32.80;;;;;;4987191;28;20026;-63
2022/04/05 10:56:06;;;;;;;1.85;0.90;;;23.50;32.50;;;;;;4988737;28;20072;-60
2022/04/05 10:58:35;;;;;;;1.05;0.88;;;23.40;32.80;;;;;;4975780;28;20050;-60
2022/04/05 11:01:35;;;;;;;2.15;1.33;;;23.30;33.30;;;;;;4986761;28;20057;-61
2022/04/05 11:04:20;;;;;;;2.30;1.60;;;23.10;32.80;;;;;;4986713;28;20405;-59
2022/04/05 11:07:01;;;;;;;3.22;2.00;;;22.90;32.40;;;;;;4987677;28;20113;-59
2022/04/05 11:09:42;;;;;;;2.80;1.65;;;22.60;32.10;;;;;;4988922;28;20034;-59
2022/04/05 11:12:16;;;;;;;3.30;2.30;;;22.50;32.50;;;;;;4987498;28;20190;-61
2022/04/05 11:14:45;;;;;;;2.95;1.75;;;22.20;32.50;;;;;;4985542;28;20458;-60
2022/04/05 11:17:14;;;;;;;2.65;1.55;;;22.30;32.20;;;;;;4982729;28;20051;-60
2022/04/05 11:19:42;;;;;;;2.90;1.60;;;22.30;32.60;;;;;;4991395;28;20183;-59
2022/04/05 11:22:20;;;;;;;2.28;1.60;;;22.30;32.60;;;;;;4996843;28;20381;-61
2022/04/05 11:25:07;;;;;;;2.80;1.40;;;22.40;32.50;;;;;;4991426;28;20183;-59
2022/04/05 11:27:45;;;;;;;2.47;1.45;;;22.40;32.40;;;;;;4990975;28;20018;-59
2022/04/05 11:30:23;;;;;;;2.50;1.50;;;22.40;32.20;;;;;;4991272;28;20028;-60
2022/04/05 11:33:11;;;;;;;3.17;1.60;;;22.40;32.30;;;;;;4995527;28;20141;-59
2022/04/05 11:35:39;;;;;;;2.33;1.60;;;22.40;32.40;;;;;;4986668;28;20049;-59
2022/04/05 11:38:11;;;;;;;2.97;1.77;;;22.40;32.80;;;;;;4987919;28;20098;-61
2022/04/05 11:40:41;;;;;;;2.40;1.50;;;22.40;32.70;;;;;;5003538;28;20065;-61
2022/04/05 11:43:17;;;;;;;2.63;1.67;;;22.40;32.70;;;;;;4997792;28;20036;-62
2022/04/05 11:45:48;;;;;;;3.13;1.45;;;22.30;32.70;;;;;;4992149;28;20030;-59
2022/04/05 11:48:19;;;;;;;2.85;1.58;;;22.30;32.90;;;;;;5003655;28;20026;-59
2022/04/05 11:50:44;;;;;;;2.22;1.20;;;22.30;33.00;;;;;;4998786;28;20026;-60
2022/04/05 11:53:37;;;;;;;1.88;1.15;;;22.30;33.00;;;;;;4987494;28;20084;-61
2022/04/05 11:56:34;;;;;;;3.75;1.40;;;22.30;33.00;;;;;;4999159;28;20034;-60
2022/04/05 11:59:00;;;;;;;3.45;1.40;;;22.30;33.10;;;;;;4986354;28;20086;-60
2022/04/05 12:01:36;;;;;;;2.50;1.42;;;22.30;33.20;;;;;;4986193;28;20041;-60
2022/04/05 12:04:08;;;;;;;1.70;1.00;;;22.30;33.50;;;;;;4996998;28;20040;-59
2022/04/05 12:06:37;;;;;;;1.42;0.75;;;22.30;33.80;;;;;;4976449;28;20550;-60
2022/04/05 12:09:07;;;;;;;0.90;0.80;;;22.40;34.10;;;;;;4984823;28;20026;-59
2022/04/05 12:11:36;;;;;;;1.90;0.90;;;22.40;34.30;;;;;;4988620;28;20436;-60
2022/04/05 12:14:09;;;;;;;1.40;0.85;;;22.40;34.50;;;;;;4982843;28;20113;-62
2022/04/05 12:16:53;;;;;;;2.00;0.93;;;22.50;34.90;;;;;;4985724;28;20021;-59
2022/04/05 12:19:28;;;;;;;0.95;0.70;;;22.50;35.10;;;;;;4994687;28;20060;-58
2022/04/05 12:21:56;;;;;;;1.30;0.90;;;22.50;35.40;;;;;;5004472;28;20037;-61
2022/04/05 12:24:22;;;;;;;0.65;0.60;;;22.50;35.60;;;;;;4998718;28;20053;-60
2022/04/05 12:26:48;;;;;;;1.30;0.70;;;22.60;35.70;;;;;;5006381;28;20038;-60
2022/04/05 12:29:14;;;;;;;1.90;0.70;;;22.60;35.90;;;;;;5008022;28;20048;-60
2022/04/05 12:31:39;;;;;;;0.73;0.73;;;22.60;36.20;;;;;;5003252;28;20030;-60
2022/04/05 12:34:13;;;;;;;0.77;0.60;;;22.60;36.20;;;;;;5004691;28;20097;-60
2022/04/05 12:36:39;;;;;;;1.08;0.70;;;22.70;36.30;;;;;;4999884;28;20115;-60
2022/04/05 12:39:20;;;;;;;0.90;0.80;;;22.70;36.40;;;;;;5002375;28;20671;-61
2022/04/05 12:41:49;;;;;;;0.50;0.50;;;22.70;36.70;;;;;;5001403;28;20033;-60
2022/04/05 12:44:17;;;;;;;0.50;0.50;;;22.80;36.90;;;;;;5003134;28;20172;-58
2022/04/05 12:46:49;;;;;;;1.25;0.60;;;22.80;37.10;;;;;;5000343;28;20076;-61
2022/04/05 12:49:28;;;;;;;0.70;0.60;;;22.80;36.90;;;;;;5000853;28;20533;-60
2022/04/05 12:52:25;;;;;;;1.13;0.80;;;22.80;37.10;;;;;;4987120;28;20152;-60
2022/04/05 12:55:15;;;;;;;1.00;0.70;;;22.80;37.30;;;;;;4993764;28;20451;-62